createdAt,value
2023-06-30T00:00:19.058Z,23.24
2023-06-30T00:02:48.980Z,23.23
2023-06-30T00:05:18.926Z,23.23
2023-06-30T00:07:52.397Z,23.23
2023-06-30T00:10:19.998Z,23.23
2023-06-30T00:12:46.676Z,23.23
2023-06-30T00:15:13.617Z,23.23
2023-06-30T00:17:40.292Z,23.23
2023-06-30T00:20:07.596Z,23.23
2023-06-30T00:22:35.019Z,23.24
2023-06-30T00:25:04.955Z,23.24
2023-06-30T00:27:34.531Z,23.23
2023-06-30T00:30:04.701Z,23.23
2023-06-30T00:32:33.881Z,23.23
2023-06-30T00:35:01.530Z,23.23
2023-06-30T00:37:32.448Z,23.23
2023-06-30T00:40:02.490Z,23.23
2023-06-30T00:42:29.174Z,23.22
2023-06-30T00:45:05.273Z,23.22
2023-06-30T00:47:36.400Z,23.22
2023-06-30T00:50:03.556Z,23.22
2023-06-30T00:52:33.739Z,23.22
2023-06-30T00:55:03.913Z,23.22
2023-06-30T00:57:30.675Z,23.21
2023-06-30T01:00:01.983Z,23.21
2023-06-30T01:02:32.136Z,23.21
2023-06-30T01:05:08.145Z,23.22
2023-06-30T01:07:38.088Z,23.21
2023-06-30T01:10:12.912Z,23.21
2023-06-30T01:12:43.431Z,23.21
2023-06-30T01:15:10.974Z,23.20
2023-06-30T01:17:43.314Z,23.21
2023-06-30T01:20:14.211Z,23.20
2023-06-30T01:23:01.254Z,23.20
2023-06-30T01:25:31.680Z,23.20
2023-06-30T01:28:07.300Z,23.20
2023-06-30T01:30:34.389Z,23.20
2023-06-30T01:33:04.936Z,23.19
2023-06-30T01:35:34.860Z,23.19
2023-06-30T01:38:04.607Z,23.19
2023-06-30T01:40:31.818Z,23.18
2023-06-30T01:43:01.890Z,23.18
2023-06-30T01:45:30.239Z,23.19
2023-06-30T01:47:57.879Z,23.19
2023-06-30T01:50:28.579Z,23.19
2023-06-30T01:53:00.293Z,23.18
2023-06-30T01:55:30.377Z,23.18
2023-06-30T01:57:59.794Z,23.19
2023-06-30T02:00:26.410Z,23.19
2023-06-30T02:02:56.004Z,23.19
2023-06-30T02:05:22.788Z,23.18
2023-06-30T02:07:50.531Z,23.18
2023-06-30T02:10:25.187Z,23.19
2023-06-30T02:12:52.024Z,23.17
2023-06-30T02:15:24.884Z,23.17
2023-06-30T02:17:55.313Z,23.18
2023-06-30T02:20:25.008Z,23.18
2023-06-30T02:22:57.479Z,23.17
2023-06-30T02:25:26.222Z,23.17
2023-06-30T02:27:56.146Z,23.17
2023-06-30T02:30:26.277Z,23.17
2023-06-30T02:32:55.681Z,23.18
2023-06-30T02:35:26.247Z,23.18
2023-06-30T02:37:53.056Z,23.18
2023-06-30T02:40:32.003Z,23.17
2023-06-30T02:43:04.875Z,23.17
2023-06-30T02:45:34.971Z,23.18
2023-06-30T02:48:04.844Z,23.17
2023-06-30T02:50:34.923Z,23.18
2023-06-30T02:53:05.470Z,23.17
2023-06-30T02:55:37.321Z,23.16
2023-06-30T02:58:06.167Z,23.16
2023-06-30T03:00:36.293Z,23.16
2023-06-30T03:03:06.101Z,23.16
2023-06-30T03:05:38.326Z,23.17
2023-06-30T03:08:08.271Z,23.17
2023-06-30T03:10:35.058Z,23.17
2023-06-30T03:13:01.769Z,23.17
2023-06-30T03:15:31.549Z,23.16
2023-06-30T03:17:58.336Z,23.16
2023-06-30T03:20:27.872Z,23.16
2023-06-30T03:22:57.961Z,23.15
2023-06-30T03:25:24.632Z,23.16
2023-06-30T03:27:51.317Z,23.15
2023-06-30T03:30:23.954Z,23.16
2023-06-30T03:32:54.520Z,23.15
2023-06-30T03:35:26.883Z,23.16
2023-06-30T03:37:54.290Z,23.16
2023-06-30T03:40:20.919Z,23.15
2023-06-30T03:42:50.630Z,23.15
2023-06-30T03:45:17.559Z,23.15
2023-06-30T03:47:47.246Z,23.15
2023-06-30T03:50:26.402Z,23.14
2023-06-30T03:52:59.201Z,23.12
2023-06-30T03:55:28.977Z,23.14
2023-06-30T03:58:08.666Z,23.11
2023-06-30T04:00:35.494Z,23.13
2023-06-30T04:03:05.557Z,23.13
2023-06-30T04:05:37.964Z,23.11
2023-06-30T04:08:04.872Z,23.10
2023-06-30T04:10:34.560Z,23.11
2023-06-30T04:13:01.458Z,23.11
2023-06-30T04:15:33.401Z,23.11
2023-06-30T04:18:00.081Z,23.13
2023-06-30T04:20:27.061Z,23.12
2023-06-30T04:22:56.545Z,23.09
2023-06-30T04:25:24.722Z,23.10
2023-06-30T04:27:51.547Z,23.05
2023-06-30T04:30:21.864Z,22.99
2023-06-30T04:32:49.034Z,22.94
2023-06-30T04:35:16.261Z,22.87
2023-06-30T04:37:43.113Z,22.81
2023-06-30T04:40:10.066Z,22.77
2023-06-30T04:42:38.377Z,22.76
2023-06-30T04:45:05.915Z,22.74
2023-06-30T04:47:32.752Z,22.70
2023-06-30T04:49:59.639Z,22.65
2023-06-30T04:52:32.200Z,22.62
2023-06-30T04:55:01.921Z,22.62
2023-06-30T04:57:28.611Z,22.60
2023-06-30T04:59:55.348Z,22.59
2023-06-30T05:02:22.247Z,22.57
2023-06-30T05:04:48.996Z,22.54
2023-06-30T05:07:15.723Z,22.52
2023-06-30T05:09:46.007Z,22.53
2023-06-30T05:12:12.595Z,22.52
2023-06-30T05:14:39.243Z,22.53
2023-06-30T05:17:06.092Z,22.54
2023-06-30T05:19:38.073Z,22.53
2023-06-30T05:22:08.187Z,22.51
2023-06-30T05:24:41.689Z,22.49
2023-06-30T05:27:12.053Z,22.51
2023-06-30T05:29:39.348Z,22.47
2023-06-30T05:32:06.784Z,22.48
2023-06-30T05:34:36.599Z,22.47
2023-06-30T05:37:07.067Z,22.48
2023-06-30T05:39:42.286Z,22.47
2023-06-30T05:42:15.407Z,22.48
2023-06-30T05:44:42.186Z,22.49
2023-06-30T05:47:11.265Z,22.49
2023-06-30T05:49:39.744Z,22.52
2023-06-30T05:52:07.226Z,22.55
2023-06-30T05:54:36.685Z,22.60
2023-06-30T05:57:07.440Z,22.61
2023-06-30T05:59:37.430Z,22.65
2023-06-30T06:02:07.314Z,22.66
2023-06-30T06:04:40.630Z,22.69
2023-06-30T06:07:17.423Z,22.71
2023-06-30T06:09:44.191Z,22.73
2023-06-30T06:12:11.962Z,22.77
2023-06-30T06:14:44.222Z,22.80
2023-06-30T06:17:14.389Z,22.82
2023-06-30T06:19:41.563Z,22.86
2023-06-30T06:22:11.332Z,22.88
2023-06-30T06:24:40.735Z,22.89
2023-06-30T06:27:08.934Z,22.91
2023-06-30T06:29:38.788Z,22.91
2023-06-30T06:32:06.158Z,22.92
2023-06-30T06:34:36.063Z,22.95
2023-06-30T06:37:02.808Z,22.96
2023-06-30T06:39:29.947Z,22.95
2023-06-30T06:41:59.892Z,22.97
2023-06-30T06:44:32.660Z,22.99
2023-06-30T06:47:18.029Z,22.99
2023-06-30T06:49:47.449Z,23.01
2023-06-30T06:52:20.394Z,23.03
2023-06-30T06:54:47.236Z,23.03
2023-06-30T06:57:24.740Z,23.02
2023-06-30T06:59:54.152Z,23.04
2023-06-30T07:02:27.414Z,23.02
2023-06-30T07:04:55.466Z,23.01
2023-06-30T07:07:25.596Z,23.03
2023-06-30T07:09:58.999Z,23.02
2023-06-30T07:12:25.860Z,23.02
2023-06-30T07:14:52.924Z,23.02
2023-06-30T07:17:26.027Z,23.02
2023-06-30T07:19:55.863Z,23.05
2023-06-30T07:22:28.937Z,23.03
2023-06-30T07:24:58.887Z,23.05
2023-06-30T07:27:29.017Z,23.03
2023-06-30T07:29:56.283Z,23.02
2023-06-30T07:32:25.898Z,23.03
2023-06-30T07:34:56.444Z,23.03
2023-06-30T07:37:26.640Z,23.03
2023-06-30T07:40:00.145Z,23.04
2023-06-30T07:42:35.364Z,23.03
2023-06-30T07:45:06.893Z,23.06
2023-06-30T07:47:43.476Z,23.05
2023-06-30T07:50:28.343Z,23.05
2023-06-30T07:52:58.345Z,23.05
2023-06-30T07:55:28.439Z,23.07
2023-06-30T07:57:57.953Z,23.07
2023-06-30T08:00:33.793Z,23.07
2023-06-30T08:03:03.491Z,23.07
2023-06-30T08:05:36.903Z,23.07
2023-06-30T08:08:07.054Z,23.07
2023-06-30T08:10:40.864Z,23.07
2023-06-30T08:13:12.421Z,23.07
2023-06-30T08:15:39.412Z,23.06
2023-06-30T08:18:10.670Z,23.07
2023-06-30T08:20:39.095Z,23.06
2023-06-30T08:23:05.927Z,23.07
2023-06-30T08:25:32.760Z,23.08
2023-06-30T08:28:06.168Z,23.08
2023-06-30T08:30:33.302Z,23.07
2023-06-30T08:33:03.526Z,23.08
2023-06-30T08:35:36.687Z,23.08
2023-06-30T08:38:07.721Z,23.08
2023-06-30T08:40:37.879Z,23.08
2023-06-30T08:43:12.568Z,23.08
2023-06-30T08:45:51.676Z,23.09
2023-06-30T08:48:28.906Z,23.09
2023-06-30T08:53:39.538Z,23.14
2023-06-30T08:56:09.318Z,23.14
2023-06-30T08:58:38.741Z,23.16
2023-06-30T09:01:09.213Z,23.19
2023-06-30T09:03:44.428Z,23.19
2023-06-30T09:06:18.100Z,23.20
2023-06-30T09:08:57.844Z,23.22
2023-06-30T09:11:30.162Z,23.22
2023-06-30T09:14:00.616Z,23.23
2023-06-30T09:16:36.239Z,23.22
2023-06-30T09:19:12.170Z,23.22
2023-06-30T09:21:42.718Z,23.23
2023-06-30T09:24:15.339Z,23.24
2023-06-30T09:26:42.470Z,23.24
2023-06-30T09:29:09.410Z,23.24
2023-06-30T09:31:38.779Z,23.23
2023-06-30T09:34:13.584Z,23.23
2023-06-30T09:36:47.219Z,23.24
2023-06-30T09:39:15.627Z,23.23
2023-06-30T09:41:43.154Z,23.23
2023-06-30T09:44:15.914Z,23.25
2023-06-30T09:46:54.268Z,23.26
2023-06-30T09:49:28.000Z,23.25
2023-06-30T09:51:56.079Z,23.26
2023-06-30T09:54:43.734Z,23.26
2023-06-30T09:57:11.528Z,23.26
2023-06-30T09:59:42.062Z,23.26
2023-06-30T10:02:13.909Z,23.26
2023-06-30T10:04:44.123Z,23.27
2023-06-30T10:07:17.261Z,23.27
2023-06-30T10:09:56.484Z,23.28
2023-06-30T10:12:31.057Z,23.28
2023-06-30T10:15:03.566Z,23.29
2023-06-30T10:17:31.652Z,23.30
2023-06-30T10:20:08.357Z,23.31
2023-06-30T10:22:41.064Z,23.32
2023-06-30T10:25:17.641Z,23.31
2023-06-30T10:27:51.315Z,23.30
2023-06-30T10:30:21.432Z,23.31
2023-06-30T10:32:50.884Z,23.30
2023-06-30T10:35:23.748Z,23.32
2023-06-30T10:37:53.677Z,23.31
2023-06-30T10:40:31.804Z,23.32
2023-06-30T10:42:59.434Z,23.30
2023-06-30T10:45:50.280Z,23.33
2023-06-30T10:48:20.404Z,23.32
2023-06-30T10:50:50.558Z,23.33
2023-06-30T10:53:20.192Z,23.36
2023-06-30T10:55:48.155Z,23.37
2023-06-30T10:58:24.922Z,23.39
2023-06-30T11:01:09.499Z,23.41
2023-06-30T11:03:54.891Z,23.42
2023-06-30T11:06:25.560Z,23.42
2023-06-30T11:09:09.175Z,23.42
2023-06-30T11:11:51.687Z,23.42
2023-06-30T11:14:36.888Z,23.42
2023-06-30T11:17:09.498Z,23.41
2023-06-30T11:19:39.667Z,23.42
2023-06-30T11:22:30.153Z,23.43
2023-06-30T11:24:58.945Z,23.42
2023-06-30T11:27:36.152Z,23.44
2023-06-30T11:30:27.444Z,23.44
2023-06-30T11:33:00.862Z,23.44
2023-06-30T11:35:48.502Z,23.43
2023-06-30T11:38:27.870Z,23.44
2023-06-30T11:41:06.024Z,23.44
2023-06-30T11:43:36.053Z,23.45
2023-06-30T11:46:06.598Z,23.45
2023-06-30T11:48:43.414Z,23.45
2023-06-30T11:51:13.857Z,23.46
2023-06-30T11:53:55.057Z,23.46
2023-06-30T11:56:31.849Z,23.46
2023-06-30T11:59:05.448Z,23.47
2023-06-30T12:01:38.347Z,23.47
2023-06-30T12:04:23.798Z,23.48
2023-06-30T12:06:50.705Z,23.48
2023-06-30T12:09:18.869Z,23.48
2023-06-30T12:11:48.624Z,23.49
2023-06-30T12:14:19.783Z,23.49
2023-06-30T12:17:01.409Z,23.49
2023-06-30T12:19:35.492Z,23.49
2023-06-30T12:22:11.403Z,23.50
2023-06-30T12:24:55.830Z,23.51
2023-06-30T12:27:22.650Z,23.49
2023-06-30T12:29:55.382Z,23.51
2023-06-30T12:32:33.914Z,23.51
2023-06-30T12:35:06.084Z,23.51
2023-06-30T12:37:45.780Z,23.51
2023-06-30T12:40:43.284Z,23.51
2023-06-30T12:43:15.750Z,23.52
2023-06-30T12:45:47.633Z,23.52
2023-06-30T12:48:21.619Z,23.52
2023-06-30T12:53:58.153Z,23.53
2023-06-30T12:56:30.504Z,23.53
2023-06-30T12:58:57.600Z,23.53
2023-06-30T13:01:30.371Z,23.53
2023-06-30T13:04:03.381Z,23.53
2023-06-30T13:06:30.292Z,23.54
2023-06-30T13:08:58.450Z,23.54
2023-06-30T13:11:25.417Z,23.55
2023-06-30T13:13:59.330Z,23.56
2023-06-30T13:16:32.108Z,23.55
2023-06-30T13:19:08.449Z,23.55
2023-06-30T13:21:41.087Z,23.57
2023-06-30T13:24:15.520Z,23.56
2023-06-30T13:26:49.483Z,23.57
2023-06-30T13:29:19.827Z,23.57
2023-06-30T13:31:47.192Z,23.58
2023-06-30T13:34:16.857Z,23.58
2023-06-30T13:36:47.915Z,23.59
2023-06-30T13:39:18.229Z,23.58
2023-06-30T13:41:54.429Z,23.59
2023-06-30T13:44:21.445Z,23.60
2023-06-30T13:46:50.637Z,23.60
2023-06-30T13:49:21.990Z,23.60
2023-06-30T13:52:02.283Z,23.60
2023-06-30T13:54:34.873Z,23.61
2023-06-30T13:57:04.218Z,23.61
2023-06-30T13:59:30.995Z,23.62
2023-06-30T14:02:10.924Z,23.61
2023-06-30T14:04:46.792Z,23.61
2023-06-30T14:07:17.522Z,23.62
2023-06-30T14:09:57.090Z,23.60
2023-06-30T14:12:48.229Z,23.60
2023-06-30T14:15:23.580Z,23.60
2023-06-30T14:17:53.893Z,23.61
2023-06-30T14:20:29.598Z,23.61
2023-06-30T14:23:08.149Z,23.62
2023-06-30T14:25:44.610Z,23.63
2023-06-30T14:28:17.968Z,23.62
2023-06-30T14:30:51.082Z,23.63
2023-06-30T14:33:23.988Z,23.63
2023-06-30T14:35:54.439Z,23.64
2023-06-30T14:38:33.321Z,23.64
2023-06-30T14:41:06.098Z,23.65
2023-06-30T14:44:00.158Z,23.64
2023-06-30T14:46:32.057Z,23.64
2023-06-30T14:49:12.719Z,23.64
2023-06-30T14:51:44.074Z,23.63
2023-06-30T14:54:17.509Z,23.64
2023-06-30T14:56:53.476Z,23.64
2023-06-30T14:59:26.166Z,23.64
2023-06-30T15:02:19.852Z,23.65
2023-06-30T15:04:49.950Z,23.66
2023-06-30T15:07:16.894Z,23.66
2023-06-30T15:09:50.002Z,23.66
2023-06-30T15:15:01.905Z,23.67
2023-06-30T15:17:36.234Z,23.67
2023-06-30T15:20:13.955Z,23.66
2023-06-30T15:22:48.791Z,23.67
2023-06-30T15:25:32.051Z,23.66
2023-06-30T15:28:27.485Z,23.68
2023-06-30T15:31:17.667Z,23.69
2023-06-30T15:33:52.034Z,23.70
2023-06-30T15:36:23.004Z,23.70
2023-06-30T15:38:52.660Z,23.72
2023-06-30T15:41:23.057Z,23.73
2023-06-30T15:43:56.409Z,23.72
2023-06-30T15:46:32.813Z,23.72
2023-06-30T15:49:05.377Z,23.74
2023-06-30T15:51:41.695Z,23.74
2023-06-30T15:54:15.893Z,23.75
2023-06-30T15:56:44.359Z,23.74
2023-06-30T15:59:13.668Z,23.76
2023-06-30T16:01:48.262Z,23.75
2023-06-30T16:04:24.583Z,23.74
2023-06-30T16:06:51.552Z,23.74
2023-06-30T16:09:25.171Z,23.74
2023-06-30T16:12:05.552Z,23.73
2023-06-30T16:14:35.154Z,23.73
2023-06-30T16:17:08.259Z,23.72
2023-06-30T16:19:41.066Z,23.71
2023-06-30T16:22:14.225Z,23.70
2023-06-30T16:24:47.455Z,23.69
2023-06-30T16:27:25.412Z,23.69
2023-06-30T16:30:13.001Z,23.67
2023-06-30T16:32:48.758Z,23.67
2023-06-30T16:35:19.463Z,23.66
2023-06-30T16:37:51.869Z,23.66
2023-06-30T16:40:24.649Z,23.67
2023-06-30T16:42:55.178Z,23.66
2023-06-30T16:45:26.883Z,23.67
2023-06-30T16:48:05.956Z,23.68
2023-06-30T16:50:37.867Z,23.69
2023-06-30T16:53:13.870Z,23.70
2023-06-30T16:55:44.790Z,23.71
2023-06-30T16:58:14.600Z,23.70
2023-06-30T17:00:44.051Z,23.71
2023-06-30T17:03:17.310Z,23.72
2023-06-30T17:05:50.290Z,23.72
2023-06-30T17:08:23.723Z,23.71
2023-06-30T17:10:57.256Z,23.70
2023-06-30T17:13:25.640Z,23.69
2023-06-30T17:15:58.729Z,23.67
2023-06-30T17:18:32.867Z,23.67
2023-06-30T17:20:59.554Z,23.66
2023-06-30T17:23:34.413Z,23.65
2023-06-30T17:26:09.317Z,23.65
2023-06-30T17:28:39.296Z,23.65
2023-06-30T17:31:10.772Z,23.64
2023-06-30T17:33:40.972Z,23.64
2023-06-30T17:36:11.389Z,23.62
2023-06-30T17:38:45.107Z,23.63
2023-06-30T17:41:23.016Z,23.63
2023-06-30T17:43:55.356Z,23.61
2023-06-30T17:46:25.541Z,23.63
2023-06-30T17:49:16.978Z,23.61
2023-06-30T17:51:46.785Z,23.63
2023-06-30T17:54:18.108Z,23.62
2023-06-30T17:56:46.119Z,23.63
2023-06-30T17:59:16.517Z,23.64
2023-06-30T18:01:46.109Z,23.65
2023-06-30T18:04:19.082Z,23.66
2023-06-30T18:07:04.165Z,23.67
2023-06-30T18:09:38.049Z,23.68
2023-06-30T18:12:08.001Z,23.66
2023-06-30T18:14:40.496Z,23.71
2023-06-30T18:17:07.584Z,23.72
2023-06-30T18:19:45.022Z,23.72
2023-06-30T18:22:15.159Z,23.73
2023-06-30T18:24:41.943Z,23.73
2023-06-30T18:27:08.764Z,23.72
2023-06-30T18:29:41.961Z,23.73
2023-06-30T18:32:12.460Z,23.74
2023-06-30T18:34:46.157Z,23.76
2023-06-30T18:37:16.919Z,23.77
2023-06-30T18:39:50.411Z,23.77
2023-06-30T18:42:22.166Z,23.77
2023-06-30T18:44:51.639Z,23.78
2023-06-30T18:47:18.432Z,23.79
2023-06-30T18:49:51.631Z,23.78
2023-06-30T18:52:22.842Z,23.78
2023-06-30T18:54:52.815Z,23.78
2023-06-30T18:57:22.403Z,23.78
2023-06-30T18:59:49.099Z,23.78
2023-06-30T19:02:20.265Z,23.73
2023-06-30T19:04:52.532Z,23.77
2023-06-30T19:07:26.057Z,23.81
2023-06-30T19:09:58.677Z,23.85
2023-06-30T19:12:31.041Z,23.87
2023-06-30T19:15:03.483Z,23.88
2023-06-30T19:17:34.931Z,23.92
2023-06-30T19:20:02.075Z,23.95
2023-06-30T19:22:31.913Z,23.99
2023-06-30T19:24:58.706Z,24.07
2023-06-30T19:27:35.178Z,24.11
2023-06-30T19:30:04.269Z,24.17
2023-06-30T19:32:34.019Z,24.21
2023-06-30T19:35:03.951Z,24.24
2023-06-30T19:37:34.117Z,24.27
2023-06-30T19:40:02.866Z,24.31
2023-06-30T19:42:33.451Z,24.31
2023-06-30T19:45:03.336Z,24.34
2023-06-30T19:47:33.793Z,24.33
2023-06-30T19:50:03.634Z,24.34
2023-06-30T19:52:30.607Z,24.36
2023-06-30T19:54:57.898Z,24.37
2023-06-30T19:57:24.703Z,24.38
2023-06-30T19:59:58.228Z,24.39
2023-06-30T20:08:05.305Z,24.38
2023-06-30T20:10:35.796Z,24.46
2023-06-30T20:13:07.720Z,24.48
2023-06-30T20:15:37.828Z,24.52
2023-06-30T20:18:04.765Z,24.49
2023-06-30T20:20:35.011Z,24.49
2023-06-30T20:23:04.684Z,24.49
2023-06-30T20:25:41.140Z,24.47
2023-06-30T20:28:15.179Z,24.46
2023-06-30T20:30:51.599Z,24.48
2023-06-30T20:33:23.199Z,24.47
2023-06-30T20:35:56.077Z,24.46
2023-06-30T20:38:23.096Z,24.44
2023-06-30T20:40:50.015Z,24.43
2023-06-30T20:43:23.857Z,24.40
2023-06-30T20:45:54.288Z,24.37
2023-06-30T20:48:24.228Z,24.37
2023-06-30T20:50:54.880Z,24.33
2023-06-30T20:53:24.834Z,24.31
2023-06-30T20:55:56.192Z,24.29
2023-06-30T20:58:29.262Z,24.27
2023-06-30T21:01:05.367Z,24.25
2023-06-30T21:03:41.368Z,24.22
2023-06-30T21:06:14.954Z,24.22
2023-06-30T21:08:47.855Z,24.19
2023-06-30T21:11:16.950Z,24.17
2023-06-30T21:13:49.547Z,24.15
2023-06-30T21:16:22.843Z,24.15
2023-06-30T21:18:49.664Z,24.13
2023-06-30T21:21:21.332Z,24.12
2023-06-30T21:23:48.586Z,24.08
2023-06-30T21:26:18.403Z,24.07
2023-06-30T21:28:59.172Z,24.06
2023-06-30T21:31:32.293Z,24.04
2023-06-30T21:34:05.300Z,24.03
2023-06-30T21:36:39.650Z,24.02
2023-06-30T21:39:11.954Z,24.01
2023-06-30T21:41:41.339Z,23.99
2023-06-30T21:44:14.389Z,23.98
2023-06-30T21:46:47.560Z,23.97
2023-06-30T21:49:18.564Z,23.97
2023-06-30T21:51:48.696Z,23.96
2023-06-30T21:54:31.251Z,23.96
2023-06-30T21:57:04.746Z,23.95
2023-06-30T21:59:39.270Z,23.93
2023-06-30T22:02:19.940Z,23.92
2023-06-30T22:04:57.814Z,23.94
2023-06-30T22:07:35.849Z,23.92
2023-06-30T22:10:17.266Z,23.92
2023-06-30T22:12:47.555Z,23.90
2023-06-30T22:15:17.167Z,23.91
2023-06-30T22:17:47.321Z,23.91
2023-06-30T22:20:15.624Z,23.91
2023-06-30T22:22:45.799Z,23.88
2023-06-30T22:25:12.604Z,23.89
2023-06-30T22:27:45.999Z,23.90
2023-06-30T22:30:16.427Z,23.89
2023-06-30T22:32:51.278Z,23.87
2023-06-30T22:35:24.484Z,23.87
2023-06-30T22:37:56.669Z,23.88
2023-06-30T22:40:26.101Z,23.87
2023-06-30T22:42:58.379Z,23.87
2023-06-30T22:45:28.165Z,23.87
2023-06-30T22:47:58.256Z,23.87
2023-06-30T22:50:31.788Z,23.87
2023-06-30T22:53:03.462Z,23.85
2023-06-30T22:55:38.906Z,23.86
2023-06-30T22:58:09.445Z,23.86
2023-06-30T23:00:41.852Z,23.85
2023-06-30T23:03:10.186Z,23.86
2023-06-30T23:05:43.785Z,23.85
2023-06-30T23:08:14.377Z,23.85
2023-06-30T23:10:49.151Z,23.85
2023-06-30T23:13:19.545Z,23.85
2023-06-30T23:15:53.242Z,23.83
2023-06-30T23:18:22.807Z,23.84
2023-06-30T23:20:52.360Z,23.84
2023-06-30T23:23:19.430Z,23.83
2023-06-30T23:25:49.815Z,23.83
2023-06-30T23:28:16.462Z,23.84
2023-06-30T23:30:46.995Z,23.84
2023-06-30T23:33:17.219Z,23.83
2023-06-30T23:35:45.289Z,23.82
2023-06-30T23:38:14.876Z,23.82
2023-06-30T23:40:41.581Z,23.82
2023-06-30T23:43:08.482Z,23.81
2023-06-30T23:45:36.066Z,23.81
2023-06-30T23:48:06.533Z,23.80
2023-06-30T23:50:33.327Z,23.80
2023-06-30T23:53:03.216Z,23.80
2023-06-30T23:55:35.036Z,23.80
2023-06-30T23:58:07.758Z,23.80
